KPRC/PRC METAR and TAF weather

Enter ICAO airport designator
Station Type Date Time Source
KPRC METAR 2019/11/14 03:53 UTC NOAA

KPRC 140353Z 00000KT 10SM CLR 09/M03 A3011 RMK AO2 SLP157 T00941033


Station Type Date Time Source
KPRC Decoded METAR 2019/11/14 03:53 UTC NOAA

PRESCOTT LOVE FIELD, AZ, United States (KPRC) 34-39N 112-25W 1524M
Nov 13, 2019 - 10:53 PM EST / 2019.11.14 0353 UTC
Wind: Calm:0
Visibility: 10 mile(s):0
Sky conditions: clear
Temperature: 48.9 F (9.4 C)
Dew Point: 26.1 F (-3.3 C)
Relative Humidity: 40%
Pressure (altimeter): 30.11 in. Hg (1019 hPa)
ob: KPRC 140353Z 00000KT 10SM CLR 09/M03 A3011 RMK AO2 SLP157 T00941033
cycle: 4

Station Type Date Time Source
KPRC TAF 2019/11/13 18:40 UTC NOAA

TAF KPRC 131738Z 1318/1418 VRB06KT P6SM FEW250

Example: see airport list